Historyczne dane pomiarowe

Dodano dane terminowe – wersja testowa.

Dane z okresu 1951-2019

Wersja bazy: 1.34 [2019-03-16, lista zmian], aktualizacja planowana na 2019-04-15

Dane meteo z obszaru Polski uzyskane na podstawie danych udostępnionych przez Instytut Meteorologii i Gospodarki Wodnej – Państwowy Instytut Badawczy.

 

Wybierz Datę:    

       

TemperaturaWilgotnośćWiatrCiśnienieOpadyŚniegCzas trwania zjawisk
 Stacja t tx tn tng RH VA  wxwx mslp ppp RRR   cm mm wxwxwxwxwxwxwx
1987-08-14 14.4 19.3 9.9 9.3 70.0- 5.0 2.7---- 0.0------------
1987-08-13 10.0 15.9 1.5 1.0 80.8- 6.7 1.0---- 0.0------------
1987-08-12 11.1 17.3 4.0 2.0 75.8- 4.3 2.0---- 0.0------------
1987-08-11 13.0 17.9 10.1 7.7 75.5- 4.7 4.3---- 0.0------------
1987-08-10 14.1 17.9 9.8 7.8 80.5- 7.3 2.0---- 13.2------------
1987-08-09 12.8 21.7 1.9 9.0 79.3- 2.3 0.7---- 0.0------------
1987-08-08 10.0 18.3 4.7 3.7 85.3- 4.7 1.7---- 0.0------------
1987-08-07 11.2 16.9 3.5 1.7 77.5- 5.0 2.0---- 0.2------------
1987-08-06 10.6 15.5 8.5 8.6 84.0- 8.0 3.0---- 5.3------------
1987-08-05 13.2 16.4 10.8 9.9 79.5- 8.0 0.3---- 4.1------------
1987-08-04 13.5 20.1 7.3 6.7 86.3- 7.0 1.7---- 7.6------------
1987-08-03 13.1 19.0 6.2 5.0 83.5- 7.3 2.7---- 0.0------------
1987-08-02 13.7 17.7 12.6 11.8 85.3- 7.0 0.7---- 3.4------------
1987-08-01 14.1 20.7 11.9 11.4 81.0- 5.0 0.0---- 4.1------------
1987-07-31 15.8 22.3 6.7 13.8 71.3- 6.3 3.0---- 8.9------------
1987-07-30 14.2 21.5 5.3 4.2 76.8- 4.7 3.3---- 0.1------------
1987-07-29 12.4 18.5 9.5 8.5 80.5- 6.3 0.7---- 0.0------------
1987-07-28 12.8 16.2 12.2 7.0 74.5- 8.0 4.0---- 2.0------------
1987-07-27 13.0- 8.8 5.3 73.0- 6.0 2.7---- 0.1------------
1987-07-26 15.5- 12.2 11.3 93.3- 8.0 0.0---- 10.5------------
1987-07-25 19.2- 15.7 11.1 83.5- 5.7 1.7---- 6.2------------
1987-07-24 21.8- 12.4 12.3 73.8- 5.0 3.3---- 21.8------------
1987-07-23 20.3- 13.6 9.2 79.0- 4.3 1.0---- 0.2------------
1987-07-22 20.6- 12.1 7.7 76.5- 2.0 2.0---- 0.0------------
1987-07-21 20.8- 11.7 7.2 74.3- 4.7 1.3---- 0.0------------
1987-07-20 23.3- 13.7 8.6 67.8- 4.0 2.0---- 0.0------------
1987-07-19 22.0- 13.2 9.5 74.3- 0.7 1.3---- 0.0------------
1987-07-18 21.7- 14.3 8.8 76.3- 3.7 2.7---- 0.0------------
1987-07-17 19.8- 10.1 5.8 73.5- 4.3 3.3---- 1.6------------
1987-07-16 17.3- 6.6 2.1 75.5- 3.0 0.7---- 0.0------------
1987-07-15 13.6- 4.3 0.5 78.0- 1.7 1.3---- 0.0------------
1987-07-14 17.3- 13.9 10.1 70.0- 2.0 1.3---- 0.0------------
1987-07-13 18.7- 14.4 9.8 78.8- 7.0 0.7---- 0.0------------
1987-07-12 19.1- 7.7 2.9 62.0- 2.0 4.0---- 5.6------------
1987-07-11 14.2- 3.8 0.2 65.3- 0.0 2.0---- 0.0------------
1987-07-10 15.2- 13.1 8.9 73.8- 2.7 2.3---- 0.0------------
1987-07-09 20.8- 16.8 8.7 64.5- 4.0 2.7---- 8.3------------
1987-07-08 17.0- 4.1 0.1 65.8- 0.0 2.3---- 0.0------------
1987-07-07 14.4- 2.5 1.7 68.8- 0.0 1.0---- 0.0------------
1987-07-06 15.7- 6.1 2.0 67.8- 0.7 1.3---- 0.0------------
1987-07-05 14.1- 6.8 2.0 76.8- 6.0 2.7---- 0.6------------
1987-07-04 17.4- 15.3 11.8 75.3- 6.7 0.7---- 0.0------------
1987-07-03 18.6- 15.2 10.5 78.3- 8.0 3.7---- 0.0------------
1987-07-02 19.7- 13.3 8.4 88.3- 8.0 2.0---- 0.0------------
1987-07-01 21.8- 11.9 7.8 72.5- 0.3 0.3---- 0.0------------
1987-06-30 19.8- 9.9 6.1 76.0- 1.3 0.3---- 0.0------------
1987-06-29 17.4- 10.8 6.0 78.5- 3.7 0.7---- 0.0------------
1987-06-28 18.0- 12.7 7.5 79.0- 5.3 0.3---- 0.0------------
1987-06-27 17.9- 7.9 3.0 71.8- 5.3 1.3---- 0.0------------
1987-06-26 14.3- 4.6 1.0 72.0- 0.3 2.3---- 0.0------------
1987-06-25 13.7- 8.4 3.8 82.3- 7.3 2.0---- 1.6------------
1987-06-24 15.2- 9.3 4.0 78.3- 6.0 2.0---- 0.0------------
1987-06-23 14.3- 10.3 5.9 87.5- 7.0 1.0---- 0.0------------
1987-06-22 14.7- 8.9 5.5 85.5- 6.3 1.0---- 1.4------------
1987-06-21 15.2- 12.1 2.0 81.5- 4.0 1.0---- 0.9------------
1987-06-20 12.8- 2.5 -0.9 74.0- 2.0 0.7---- 0.0------------
1987-06-19 10.4- 5.3 2.4 81.8- 5.0 0.7---- 0.4------------
1987-06-18 10.3- 4.2 1.3 83.3- 4.0 1.3---- 5.8------------
1987-06-17 10.5- 9.2 1.5 87.0- 6.7 1.0---- 8.1------------
1987-06-16 17.5- 11.5 6.0 68.5- 6.3 4.0---- 27.3------------
488.1 ms

 

Źródłem pochodzenia danych jest Instytut Meteorologii i Gospodarki Wodnej – Państwowy Instytut Badawczy. Dane Instytutu Meteorologii i Gospodarki Wodnej – Państwowego Instytutu Badawczego zostały przetworzone.

Dane źródłowe można odnaleźć na stronie https://dane.imgw.pl